createdAt,value
2022-12-10T00:01:15.081Z,98519.25
2022-12-10T00:03:41.681Z,98513.47
2022-12-10T00:06:12.301Z,98522.78
2022-12-10T00:08:39.019Z,98521.06
2022-12-10T00:11:08.776Z,98522.28
2022-12-10T00:13:36.623Z,98519.16
2022-12-10T00:16:05.500Z,98516.28
2022-12-10T00:18:33.091Z,98520.81
2022-12-10T00:20:59.711Z,98517.84
2022-12-10T00:23:26.312Z,98520.69
2022-12-10T00:25:53.028Z,98528.91
2022-12-10T00:28:19.628Z,98530.34
2022-12-10T00:30:46.217Z,98540.75
2022-12-10T00:33:12.861Z,98539.88
2022-12-10T00:35:39.507Z,98543.63
2022-12-10T00:38:06.096Z,98532.53
2022-12-10T00:40:33.813Z,98539.16
2022-12-10T00:43:00.398Z,98533.50
2022-12-10T00:45:26.998Z,98530.91
2022-12-10T00:47:53.592Z,98534.22
2022-12-10T00:50:20.207Z,98540.59
2022-12-10T00:52:46.771Z,98545.34
2022-12-10T00:55:13.384Z,98551.72
2022-12-10T00:57:39.967Z,98558.31
2022-12-10T01:00:07.669Z,98564.28
2022-12-10T01:02:34.483Z,98555.00
2022-12-10T01:05:01.060Z,98554.75
2022-12-10T01:07:27.639Z,98558.72
2022-12-10T01:09:54.359Z,98561.88
2022-12-10T01:12:21.009Z,98565.38
2022-12-10T01:14:47.597Z,98567.84
2022-12-10T01:17:14.188Z,98571.34
2022-12-10T01:19:40.831Z,98572.09
2022-12-10T01:22:07.415Z,98571.66
2022-12-10T01:24:34.037Z,98575.53
2022-12-10T01:27:00.696Z,98591.19
2022-12-10T01:29:27.429Z,98577.22
2022-12-10T01:31:56.401Z,98588.16
2022-12-10T01:34:23.262Z,98582.53
2022-12-10T01:36:54.508Z,98581.56
2022-12-10T01:39:22.954Z,98578.59
2022-12-10T01:41:59.045Z,98591.50
2022-12-10T01:44:25.584Z,98588.22
2022-12-10T01:46:54.769Z,98581.72
2022-12-10T01:49:24.351Z,98575.72
2022-12-10T01:51:53.452Z,98586.59
2022-12-10T01:54:25.154Z,98581.44
2022-12-10T01:57:00.296Z,98576.97
2022-12-10T01:59:28.211Z,98584.38
2022-12-10T02:02:00.802Z,98593.84
2022-12-10T02:05:01.155Z,98608.59
2022-12-10T02:07:39.622Z,98607.72
2022-12-10T02:10:29.650Z,98600.91
2022-12-10T02:13:23.134Z,98596.13
2022-12-10T02:15:57.155Z,98598.97
2022-12-10T02:18:29.601Z,98603.75
2022-12-10T02:21:01.909Z,98602.31
2022-12-10T02:23:36.482Z,98603.41
2022-12-10T02:26:14.124Z,98596.53
2022-12-10T02:28:42.667Z,98609.88
2022-12-10T02:31:12.960Z,98605.84
2022-12-10T02:33:43.898Z,98599.81
2022-12-10T02:36:12.853Z,98605.22
2022-12-10T02:38:42.271Z,98602.09
2022-12-10T02:41:24.366Z,98597.91
2022-12-10T02:43:54.333Z,98594.47
2022-12-10T02:46:23.968Z,98601.19
2022-12-10T02:48:52.140Z,98603.00
2022-12-10T02:51:18.748Z,98594.16
2022-12-10T02:53:46.075Z,98602.25
2022-12-10T02:56:27.356Z,98607.78
2022-12-10T02:59:17.311Z,98619.09
2022-12-10T03:01:43.837Z,98616.84
2022-12-10T03:04:44.074Z,98610.63
2022-12-10T03:07:29.390Z,98603.38
2022-12-10T03:10:18.933Z,98602.75
2022-12-10T03:12:52.300Z,98607.28
2022-12-10T03:15:20.569Z,98614.06
2022-12-10T03:17:49.894Z,98625.94
2022-12-10T03:20:17.064Z,98637.06
2022-12-10T03:22:46.158Z,98641.91
2022-12-10T03:25:21.034Z,98643.97
2022-12-10T03:27:52.853Z,98644.09
2022-12-10T03:30:19.498Z,98631.03
2022-12-10T03:32:47.101Z,98636.00
2022-12-10T03:35:16.346Z,98635.34
2022-12-10T03:37:43.165Z,98628.25
2022-12-10T03:40:12.208Z,98636.59
2022-12-10T03:42:39.242Z,98630.59
2022-12-10T03:45:06.615Z,98634.06
2022-12-10T03:47:33.671Z,98628.16
2022-12-10T03:50:00.277Z,98634.97
2022-12-10T03:52:26.974Z,98642.13
2022-12-10T03:54:53.573Z,98653.41
2022-12-10T03:57:20.154Z,98658.16
2022-12-10T03:59:46.751Z,98663.16
2022-12-10T04:02:13.431Z,98658.72
2022-12-10T04:04:40.036Z,98652.44
2022-12-10T04:07:06.705Z,98653.25
2022-12-10T04:09:33.264Z,98640.34
2022-12-10T04:12:00.403Z,98652.91
2022-12-10T04:14:27.555Z,98664.59
2022-12-10T04:16:54.211Z,98658.44
2022-12-10T04:19:21.959Z,98661.84
2022-12-10T04:21:48.820Z,98666.66
2022-12-10T04:24:16.319Z,98649.94
2022-12-10T04:26:42.909Z,98659.59
2022-12-10T04:29:10.067Z,98656.22
2022-12-10T04:31:36.928Z,98658.41
2022-12-10T04:34:03.492Z,98665.84
2022-12-10T04:36:30.046Z,98658.16
2022-12-10T04:38:56.623Z,98656.25
2022-12-10T04:41:23.261Z,98674.09
2022-12-10T04:43:49.825Z,98661.59
2022-12-10T04:46:16.536Z,98664.09
2022-12-10T04:48:43.147Z,98664.81
2022-12-10T04:51:09.707Z,98670.13
2022-12-10T04:53:36.297Z,98668.97
2022-12-10T04:56:03.290Z,98666.16
2022-12-10T04:58:29.856Z,98659.19
2022-12-10T05:01:21.461Z,98665.69
2022-12-10T05:03:48.144Z,98674.78
2022-12-10T05:06:16.983Z,98676.13
2022-12-10T05:08:44.626Z,98683.81
2022-12-10T05:11:14.670Z,98684.94
2022-12-10T05:13:41.806Z,98689.03
2022-12-10T05:16:12.044Z,98684.84
2022-12-10T05:18:39.073Z,98693.25
2022-12-10T05:21:08.395Z,98696.81
2022-12-10T05:23:38.738Z,98702.53
2022-12-10T05:26:14.777Z,98705.34
2022-12-10T05:28:45.070Z,98708.22
2022-12-10T05:31:16.905Z,98713.81
2022-12-10T05:33:43.678Z,98713.72
2022-12-10T05:36:12.272Z,98714.56
2022-12-10T05:38:38.907Z,98722.84
2022-12-10T05:41:08.045Z,98722.00
2022-12-10T05:43:34.940Z,98717.19
2022-12-10T05:46:03.022Z,98720.25
2022-12-10T05:48:29.704Z,98713.09
2022-12-10T05:50:56.980Z,98712.00
2022-12-10T05:53:23.813Z,98713.47
2022-12-10T05:55:51.212Z,98715.31
2022-12-10T05:58:17.806Z,98715.53
2022-12-10T06:00:44.413Z,98723.06
2022-12-10T06:03:11.025Z,98716.91
2022-12-10T06:05:39.484Z,98723.81
2022-12-10T06:08:06.209Z,98720.63
2022-12-10T06:10:35.642Z,98713.88
2022-12-10T06:13:03.134Z,98728.44
2022-12-10T06:15:29.765Z,98726.69
2022-12-10T06:17:56.973Z,98729.22
2022-12-10T06:20:24.740Z,98734.50
2022-12-10T06:22:51.325Z,98738.09
2022-12-10T06:25:18.134Z,98731.88
2022-12-10T06:27:45.191Z,98735.72
2022-12-10T06:30:12.142Z,98737.56
2022-12-10T06:32:38.773Z,98733.88
2022-12-10T06:35:05.785Z,98742.25
2022-12-10T06:37:32.621Z,98741.72
2022-12-10T06:39:59.214Z,98746.06
2022-12-10T06:42:25.798Z,98750.03
2022-12-10T06:44:52.405Z,98751.41
2022-12-10T06:47:19.050Z,98755.91
2022-12-10T06:49:45.632Z,98752.66
2022-12-10T06:52:12.303Z,98752.50
2022-12-10T06:54:38.979Z,98755.94
2022-12-10T06:57:05.561Z,98760.53
2022-12-10T06:59:32.609Z,98758.44
2022-12-10T07:01:59.362Z,98754.50
2022-12-10T07:04:26.065Z,98759.09
2022-12-10T07:06:53.379Z,98748.13
2022-12-10T07:09:20.135Z,98746.44
2022-12-10T07:11:46.712Z,98747.19
2022-12-10T07:14:16.529Z,98744.34
2022-12-10T07:16:43.830Z,98749.97
2022-12-10T07:19:12.952Z,98752.63
2022-12-10T07:21:41.895Z,98757.75
2022-12-10T07:24:14.627Z,98754.47
2022-12-10T07:26:43.265Z,98750.38
2022-12-10T07:29:27.863Z,98733.97
2022-12-10T07:31:54.545Z,98741.19
2022-12-10T07:34:21.136Z,98726.50
2022-12-10T07:36:47.736Z,98717.44
2022-12-10T07:39:15.199Z,98711.25
2022-12-10T07:41:41.802Z,98727.22
2022-12-10T07:44:12.686Z,98723.59
2022-12-10T07:46:39.407Z,98719.50
2022-12-10T07:49:06.047Z,98736.81
2022-12-10T07:51:32.645Z,98738.72
2022-12-10T07:53:59.278Z,98749.38
2022-12-10T07:56:26.626Z,98760.09
2022-12-10T07:58:54.203Z,98764.22
2022-12-10T08:01:24.185Z,98771.13
2022-12-10T08:03:51.801Z,98773.94
2022-12-10T08:06:21.069Z,98771.63
2022-12-10T08:08:48.322Z,98760.66
2022-12-10T08:11:16.208Z,98748.31
2022-12-10T08:13:43.148Z,98743.25
2022-12-10T08:16:21.573Z,98746.28
2022-12-10T08:18:48.146Z,98756.28
2022-12-10T08:21:17.334Z,98746.78
2022-12-10T08:23:44.679Z,98745.19
2022-12-10T08:26:17.382Z,98744.69
2022-12-10T08:28:44.233Z,98725.19
2022-12-10T08:31:12.456Z,98723.66
2022-12-10T08:33:40.192Z,98728.16
2022-12-10T08:36:09.353Z,98720.44
2022-12-10T08:38:36.761Z,98721.59
2022-12-10T08:41:11.575Z,98737.28
2022-12-10T08:43:38.798Z,98738.50
2022-12-10T08:46:05.648Z,98734.44
2022-12-10T08:48:32.907Z,98741.44
2022-12-10T08:50:59.484Z,98748.59
2022-12-10T08:53:26.108Z,98756.75
2022-12-10T08:55:54.039Z,98760.16
2022-12-10T08:58:21.649Z,98769.56
2022-12-10T09:00:49.683Z,98750.31
2022-12-10T09:03:17.311Z,98752.50
2022-12-10T09:05:43.930Z,98764.72
2022-12-10T09:08:10.671Z,98765.84
2022-12-10T09:10:41.074Z,98765.78
2022-12-10T09:13:07.874Z,98768.81
2022-12-10T09:15:34.563Z,98771.69
2022-12-10T09:18:01.163Z,98769.91
2022-12-10T09:20:27.871Z,98778.09
2022-12-10T09:22:54.526Z,98770.81
2022-12-10T09:25:21.117Z,98774.13
2022-12-10T09:27:47.929Z,98766.00
2022-12-10T09:30:14.668Z,98749.19
2022-12-10T09:32:41.275Z,98756.88
2022-12-10T09:35:08.241Z,98746.22
2022-12-10T09:37:34.816Z,98741.06
2022-12-10T09:40:01.432Z,98740.78
2022-12-10T09:42:30.840Z,98743.44
2022-12-10T09:45:27.857Z,98747.84
2022-12-10T09:48:28.629Z,98736.75
2022-12-10T09:51:13.458Z,98743.09
2022-12-10T09:53:41.319Z,98733.94
2022-12-10T09:56:23.328Z,98734.31
2022-12-10T09:58:50.286Z,98725.53
2022-12-10T10:01:20.861Z,98713.09
2022-12-10T10:03:49.044Z,98701.03
2022-12-10T10:06:16.170Z,98705.75
2022-12-10T10:08:53.621Z,98714.09
2022-12-10T10:11:24.978Z,98707.25
2022-12-10T10:14:00.718Z,98706.91
2022-12-10T10:16:35.885Z,98712.69
2022-12-10T10:19:12.352Z,98715.97
2022-12-10T10:21:50.255Z,98708.00
2022-12-10T10:24:20.237Z,98710.66
2022-12-10T10:26:47.981Z,98703.13
2022-12-10T10:29:21.368Z,98706.50
2022-12-10T10:31:48.370Z,98707.31
2022-12-10T10:34:14.940Z,98706.41
2022-12-10T10:36:42.457Z,98709.66
2022-12-10T10:39:18.153Z,98700.03
2022-12-10T10:41:51.848Z,98702.84
2022-12-10T10:44:23.570Z,98703.97
2022-12-10T10:46:53.130Z,98708.06
2022-12-10T10:49:23.877Z,98709.88
2022-12-10T10:51:50.498Z,98708.19
2022-12-10T10:54:37.316Z,98712.63
2022-12-10T10:57:33.041Z,98713.59
2022-12-10T11:00:20.005Z,98702.09
2022-12-10T11:02:46.783Z,98702.19
2022-12-10T11:05:35.466Z,98691.03
2022-12-10T11:08:05.749Z,98688.88
2022-12-10T11:10:33.892Z,98675.09
2022-12-10T11:13:07.135Z,98681.19
2022-12-10T11:15:39.307Z,98674.09
2022-12-10T11:18:24.545Z,98680.34
2022-12-10T11:21:07.643Z,98672.09
2022-12-10T11:23:42.678Z,98671.06
2022-12-10T11:26:27.374Z,98673.81
2022-12-10T11:29:15.594Z,98678.38
2022-12-10T11:32:00.455Z,98672.81
2022-12-10T11:34:40.695Z,98670.88
2022-12-10T11:37:22.799Z,98656.22
2022-12-10T11:40:03.951Z,98650.97
2022-12-10T11:42:52.429Z,98648.94
2022-12-10T11:45:38.495Z,98642.47
2022-12-10T11:48:12.284Z,98632.50
2022-12-10T11:50:54.895Z,98629.94
2022-12-10T11:53:43.163Z,98629.50
2022-12-10T11:56:21.675Z,98617.28
2022-12-10T11:59:15.857Z,98615.25
2022-12-10T12:02:09.763Z,98616.81
2022-12-10T12:05:20.951Z,98606.94
2022-12-10T12:07:47.483Z,98607.66
2022-12-10T12:10:32.015Z,98593.91
2022-12-10T12:13:11.252Z,98592.88
2022-12-10T12:15:46.739Z,98590.19
2022-12-10T12:18:23.742Z,98590.66
2022-12-10T12:20:58.913Z,98590.91
2022-12-10T12:23:48.021Z,98595.84
2022-12-10T12:26:21.102Z,98591.13
2022-12-10T12:28:58.104Z,98587.38
2022-12-10T12:31:35.885Z,98589.59
2022-12-10T12:34:12.540Z,98588.16
2022-12-10T12:36:39.970Z,98593.97
2022-12-10T12:39:31.283Z,98587.66
2022-12-10T12:42:13.217Z,98585.00
2022-12-10T12:45:00.501Z,98581.44
2022-12-10T12:47:33.345Z,98580.16
2022-12-10T12:50:01.592Z,98586.53
2022-12-10T12:52:47.990Z,98586.09
2022-12-10T12:55:34.123Z,98589.69
2022-12-10T12:58:30.026Z,98594.81
2022-12-10T13:01:02.060Z,98597.41
2022-12-10T13:03:36.237Z,98597.09
2022-12-10T13:06:20.492Z,98602.41
2022-12-10T13:09:13.998Z,98596.88
2022-12-10T13:11:42.362Z,98601.97
2022-12-10T13:14:08.994Z,98606.91
2022-12-10T13:16:44.364Z,98599.38
2022-12-10T13:19:19.891Z,98607.91
2022-12-10T13:22:02.374Z,98606.97
2022-12-10T13:24:37.788Z,98605.00
2022-12-10T13:27:13.302Z,98609.06
2022-12-10T13:29:45.654Z,98606.22
2022-12-10T13:32:18.251Z,98596.06
2022-12-10T13:34:44.883Z,98603.25
2022-12-10T13:37:14.539Z,98597.16
2022-12-10T13:39:54.896Z,98601.19
2022-12-10T13:42:33.959Z,98601.03
2022-12-10T13:45:05.091Z,98593.88
2022-12-10T13:47:37.886Z,98600.78
2022-12-10T13:50:14.165Z,98590.47
2022-12-10T13:53:04.105Z,98589.56
2022-12-10T13:56:05.892Z,98584.13
2022-12-10T13:58:38.417Z,98586.16
2022-12-10T14:01:17.160Z,98587.44
2022-12-10T14:04:05.163Z,98580.94
2022-12-10T14:06:40.840Z,98580.94
2022-12-10T14:09:16.810Z,98575.63
2022-12-10T14:12:18.470Z,98570.63
2022-12-10T14:14:55.957Z,98565.63
2022-12-10T14:17:30.349Z,98571.72
2022-12-10T14:19:57.263Z,98572.59
2022-12-10T14:22:35.605Z,98574.53
2022-12-10T14:25:07.238Z,98572.41
2022-12-10T14:27:34.295Z,98579.09
2022-12-10T14:30:23.237Z,98577.13
2022-12-10T14:32:52.046Z,98574.03
2022-12-10T14:35:25.956Z,98574.97
2022-12-10T14:37:56.068Z,98580.09
2022-12-10T14:40:25.829Z,98575.84
2022-12-10T14:43:06.343Z,98579.31
2022-12-10T14:45:46.993Z,98573.34
2022-12-10T14:48:15.234Z,98582.22
2022-12-10T14:50:41.862Z,98573.34
2022-12-10T14:53:25.104Z,98573.94
2022-12-10T14:56:03.104Z,98578.41
2022-12-10T14:59:03.020Z,98579.91
2022-12-10T15:01:36.090Z,98580.72
2022-12-10T15:04:05.508Z,98574.88
2022-12-10T15:06:37.602Z,98572.19
2022-12-10T15:09:06.477Z,98565.53
2022-12-10T15:11:33.466Z,98559.22
2022-12-10T15:14:02.580Z,98562.72
2022-12-10T15:16:42.312Z,98563.81
2022-12-10T15:19:23.073Z,98558.44
2022-12-10T15:21:51.990Z,98556.59
2022-12-10T15:24:28.311Z,98556.69
2022-12-10T15:26:55.351Z,98547.19
2022-12-10T15:29:27.953Z,98546.06
2022-12-10T15:32:17.191Z,98545.94
2022-12-10T15:34:56.601Z,98545.53
2022-12-10T15:37:32.727Z,98545.13
2022-12-10T15:40:01.950Z,98537.78
2022-12-10T15:42:31.019Z,98543.84
2022-12-10T15:45:03.555Z,98529.44
2022-12-10T15:47:30.137Z,98528.78
2022-12-10T15:49:57.276Z,98535.75
2022-12-10T15:52:26.824Z,98533.69
2022-12-10T15:54:54.818Z,98527.53
2022-12-10T15:57:35.998Z,98527.59
2022-12-10T16:00:23.393Z,98526.56
2022-12-10T16:03:06.441Z,98526.09
2022-12-10T16:05:36.959Z,98524.88
2022-12-10T16:08:20.459Z,98526.66
2022-12-10T16:10:51.907Z,98519.53
2022-12-10T16:13:29.298Z,98516.75
2022-12-10T16:16:00.130Z,98518.34
2022-12-10T16:18:32.103Z,98516.28
2022-12-10T16:21:00.484Z,98516.31
2022-12-10T16:23:29.820Z,98509.84
2022-12-10T16:25:56.524Z,98509.72
2022-12-10T16:28:24.565Z,98508.22
2022-12-10T16:30:56.925Z,98509.78
2022-12-10T16:33:25.750Z,98505.69
2022-12-10T16:35:53.788Z,98502.84
2022-12-10T16:38:21.445Z,98494.38
2022-12-10T16:40:49.344Z,98492.66
2022-12-10T16:43:24.448Z,98490.25
2022-12-10T16:45:51.935Z,98485.16
2022-12-10T16:48:19.490Z,98480.47
2022-12-10T16:50:47.423Z,98483.59
2022-12-10T16:53:24.956Z,98468.88
2022-12-10T16:55:52.315Z,98474.97
2022-12-10T16:58:19.691Z,98471.56
2022-12-10T17:00:48.688Z,98466.22
2022-12-10T17:03:22.965Z,98453.22
2022-12-10T17:05:58.541Z,98447.13
2022-12-10T17:08:26.901Z,98445.28
2022-12-10T17:10:55.335Z,98440.91
2022-12-10T17:13:23.653Z,98435.22
2022-12-10T17:15:51.007Z,98435.38
2022-12-10T17:18:18.660Z,98426.78
2022-12-10T17:20:46.606Z,98433.84
2022-12-10T17:23:13.541Z,98435.53
2022-12-10T17:25:41.408Z,98424.97
2022-12-10T17:28:15.067Z,98420.63
2022-12-10T17:30:42.931Z,98414.56
2022-12-10T17:33:13.788Z,98418.72
2022-12-10T17:35:45.494Z,98411.63
2022-12-10T17:38:21.090Z,98409.72
2022-12-10T17:40:47.674Z,98409.63
2022-12-10T17:43:14.288Z,98401.34
2022-12-10T17:45:45.050Z,98404.50
2022-12-10T17:48:16.979Z,98401.19
2022-12-10T17:50:45.248Z,98404.72
2022-12-10T17:53:14.018Z,98403.94
2022-12-10T17:55:48.197Z,98397.72
2022-12-10T17:58:15.911Z,98395.00
2022-12-10T18:00:42.490Z,98391.31
2022-12-10T18:03:09.076Z,98395.50
2022-12-10T18:05:35.684Z,98382.03
2022-12-10T18:08:02.351Z,98386.31
2022-12-10T18:10:31.524Z,98382.75
2022-12-10T18:12:58.654Z,98381.91
2022-12-10T18:15:27.101Z,98380.44
2022-12-10T18:17:58.591Z,98373.53
2022-12-10T18:20:29.260Z,98364.00
2022-12-10T18:22:57.160Z,98368.34
2022-12-10T18:25:24.258Z,98364.94
2022-12-10T18:27:51.166Z,98364.56
2022-12-10T18:30:21.201Z,98368.72
2022-12-10T18:32:48.132Z,98364.00
2022-12-10T18:35:14.891Z,98360.59
2022-12-10T18:37:42.109Z,98362.41
2022-12-10T18:40:16.328Z,98359.69
2022-12-10T18:42:47.102Z,98350.00
2022-12-10T18:45:14.888Z,98347.31
2022-12-10T18:47:41.650Z,98352.31
2022-12-10T18:50:24.001Z,98338.47
2022-12-10T18:52:51.782Z,98332.25
2022-12-10T18:55:19.668Z,98332.50
2022-12-10T18:57:49.121Z,98330.41
2022-12-10T19:00:21.678Z,98326.28
2022-12-10T19:02:48.626Z,98321.19
2022-12-10T19:05:16.102Z,98318.41
2022-12-10T19:07:43.310Z,98321.69
2022-12-10T19:10:22.553Z,98317.50
2022-12-10T19:12:49.479Z,98314.09
2022-12-10T19:15:18.668Z,98312.81
2022-12-10T19:17:45.936Z,98316.66
2022-12-10T19:20:18.875Z,98311.50
2022-12-10T19:22:45.699Z,98304.47
2022-12-10T19:25:12.764Z,98300.88
2022-12-10T19:27:40.194Z,98299.44
2022-12-10T19:30:28.256Z,98293.56
2022-12-10T19:32:55.158Z,98296.75
2022-12-10T19:35:24.853Z,98288.47
2022-12-10T19:37:56.157Z,98287.56
2022-12-10T19:40:31.085Z,98290.59
2022-12-10T19:42:58.138Z,98290.13
2022-12-10T19:45:25.463Z,98297.09
2022-12-10T19:47:53.324Z,98285.81
2022-12-10T19:50:23.516Z,98283.00
2022-12-10T19:52:50.201Z,98269.03
2022-12-10T19:55:19.003Z,98265.00
2022-12-10T19:57:46.535Z,98269.91
2022-12-10T20:00:19.531Z,98266.56
2022-12-10T20:02:46.924Z,98271.19
2022-12-10T20:05:17.030Z,98266.16
2022-12-10T20:07:45.574Z,98271.97
2022-12-10T20:10:24.873Z,98277.53
2022-12-10T20:12:51.886Z,98267.22
2022-12-10T20:15:20.112Z,98259.88
2022-12-10T20:17:47.381Z,98256.56
2022-12-10T20:20:20.308Z,98261.50
2022-12-10T20:22:46.921Z,98250.25
2022-12-10T20:25:14.798Z,98251.69
2022-12-10T20:27:42.363Z,98251.03
2022-12-10T20:30:17.508Z,98252.03
2022-12-10T20:32:44.146Z,98236.88
2022-12-10T20:35:13.480Z,98238.56
2022-12-10T20:37:40.119Z,98237.41
2022-12-10T20:40:30.797Z,98234.50
2022-12-10T20:42:54.263Z,98230.78
2022-12-10T20:45:20.913Z,98238.03
2022-12-10T20:47:47.742Z,98228.03
2022-12-10T20:50:18.343Z,98219.81
2022-12-10T20:52:44.955Z,98222.59
2022-12-10T20:55:12.043Z,98225.19
2022-12-10T20:57:39.146Z,98217.47
2022-12-10T21:00:14.631Z,98216.66
2022-12-10T21:02:42.823Z,98209.16
2022-12-10T21:05:09.723Z,98213.16
2022-12-10T21:07:36.579Z,98214.88
2022-12-10T21:10:04.016Z,98205.00
2022-12-10T21:12:30.674Z,98211.50
2022-12-10T21:15:02.331Z,98205.25
2022-12-10T21:17:32.359Z,98212.47
2022-12-10T21:19:58.965Z,98203.97
2022-12-10T21:22:25.521Z,98208.34
2022-12-10T21:24:52.172Z,98202.66
2022-12-10T21:27:19.135Z,98200.94
2022-12-10T21:29:45.753Z,98199.84
2022-12-10T21:32:12.353Z,98203.91
2022-12-10T21:34:38.954Z,98197.16
2022-12-10T21:37:05.631Z,98197.28
2022-12-10T21:39:35.177Z,98199.25
2022-12-10T21:42:01.764Z,98192.91
2022-12-10T21:44:28.358Z,98186.25
2022-12-10T21:46:54.988Z,98186.22
2022-12-10T21:49:21.617Z,98181.31
2022-12-10T21:51:48.214Z,98175.00
2022-12-10T21:54:14.786Z,98174.06
2022-12-10T21:56:41.430Z,98164.13
2022-12-10T21:59:08.004Z,98166.06
2022-12-10T22:01:34.748Z,98163.56
2022-12-10T22:04:01.426Z,98158.53
2022-12-10T22:06:29.303Z,98168.25
2022-12-10T22:08:57.150Z,98160.47
2022-12-10T22:11:23.724Z,98158.00
2022-12-10T22:13:55.539Z,98159.28
2022-12-10T22:16:22.869Z,98159.16
2022-12-10T22:18:49.479Z,98154.72
2022-12-10T22:21:16.233Z,98155.09
2022-12-10T22:23:42.823Z,98156.31
2022-12-10T22:26:09.628Z,98150.47
2022-12-10T22:28:36.257Z,98149.94
2022-12-10T22:31:07.006Z,98149.53
2022-12-10T22:33:33.743Z,98151.28
2022-12-10T22:36:00.340Z,98155.84
2022-12-10T22:38:26.957Z,98151.13
2022-12-10T22:40:53.616Z,98149.66
2022-12-10T22:43:49.261Z,98143.75
2022-12-10T22:46:06.817Z,98137.03
2022-12-10T22:48:33.738Z,98129.34
2022-12-10T22:51:06.472Z,98128.50
2022-12-10T22:53:34.896Z,98123.69
2022-12-10T22:56:04.585Z,98117.53
2022-12-10T22:58:31.283Z,98111.09
2022-12-10T23:00:59.165Z,98106.47
2022-12-10T23:03:26.826Z,98102.22
2022-12-10T23:05:53.426Z,98099.72
2022-12-10T23:08:20.494Z,98090.44
2022-12-10T23:10:47.507Z,98083.13
2022-12-10T23:13:15.030Z,98070.16
2022-12-10T23:15:42.556Z,98061.03
2022-12-10T23:18:10.600Z,98063.44
2022-12-10T23:20:37.258Z,98050.66
2022-12-10T23:23:03.928Z,98046.06
2022-12-10T23:25:30.529Z,98046.16
2022-12-10T23:27:57.118Z,98043.34
2022-12-10T23:30:23.886Z,98053.44
2022-12-10T23:32:51.016Z,98048.47
2022-12-10T23:35:17.826Z,98043.25
2022-12-10T23:37:44.446Z,98030.13
2022-12-10T23:40:11.696Z,98029.19
2022-12-10T23:42:38.340Z,98028.16
2022-12-10T23:45:05.214Z,98019.41
2022-12-10T23:47:31.791Z,98009.22
2022-12-10T23:49:58.372Z,98012.41
2022-12-10T23:52:24.960Z,98007.84
2022-12-10T23:54:51.540Z,98011.84
2022-12-10T23:57:18.128Z,98017.63
2022-12-10T23:59:44.696Z,98007.72
